createdAt,value
2022-10-17T00:00:06.147Z,41.87
2022-10-17T00:03:08.805Z,43.35
2022-10-17T00:06:13.887Z,36.83
2022-10-17T00:09:16.029Z,40.70
2022-10-17T00:12:18.155Z,45.50
2022-10-17T00:15:21.063Z,42.37
2022-10-17T00:18:23.390Z,44.08
2022-10-17T00:21:26.357Z,41.15
2022-10-17T00:24:30.910Z,38.80
2022-10-17T00:27:41.666Z,43.87
2022-10-17T00:30:43.844Z,40.03
2022-10-17T00:33:46.894Z,40.67
2022-10-17T00:36:51.208Z,43.92
2022-10-17T00:39:54.447Z,45.17
2022-10-17T00:42:56.717Z,41.87
2022-10-17T00:45:58.961Z,40.73
2022-10-17T00:49:12.821Z,46.67
2022-10-17T00:52:18.790Z,39.67
2022-10-17T00:55:24.367Z,42.65
2022-10-17T00:58:29.475Z,41.47
2022-10-17T01:01:32.198Z,42.43
2022-10-17T01:04:36.786Z,43.05
2022-10-17T01:07:40.339Z,40.67
2022-10-17T01:10:57.814Z,42.97
2022-10-17T01:14:05.808Z,39.03
2022-10-17T01:17:42.922Z,44.07
2022-10-17T01:21:09.886Z,37.30
2022-10-17T01:24:38.250Z,41.58
2022-10-17T01:27:52.252Z,41.47
2022-10-17T01:31:14.200Z,38.20
2022-10-17T01:34:22.583Z,36.40
2022-10-17T01:37:31.759Z,43.72
2022-10-17T01:41:05.119Z,39.10
2022-10-17T01:44:20.776Z,40.08
2022-10-17T01:47:25.982Z,39.03
2022-10-17T01:50:33.670Z,40.77
2022-10-17T01:53:43.182Z,41.83
2022-10-17T01:56:46.715Z,44.78
2022-10-17T01:59:51.820Z,43.08
2022-10-17T02:03:00.267Z,50.37
2022-10-17T02:06:02.760Z,47.93
2022-10-17T02:09:17.838Z,42.40
2022-10-17T02:12:38.055Z,39.25
2022-10-17T02:15:48.751Z,36.08
2022-10-17T02:19:02.183Z,40.77
2022-10-17T02:22:18.169Z,38.30
2022-10-17T02:25:31.277Z,40.17
2022-10-17T02:28:42.456Z,41.25
2022-10-17T02:32:06.624Z,37.97
2022-10-17T02:35:11.285Z,37.53
2022-10-17T02:38:13.942Z,37.33
2022-10-17T02:41:19.145Z,44.10
2022-10-17T02:44:22.041Z,44.90
2022-10-17T02:47:28.313Z,43.17
2022-10-17T02:50:42.348Z,41.90
2022-10-17T02:53:52.403Z,43.03
2022-10-17T02:56:59.569Z,39.47
2022-10-17T03:00:02.497Z,35.25
2022-10-17T03:03:21.390Z,39.45
2022-10-17T03:06:23.501Z,40.00
2022-10-17T03:09:25.722Z,40.57
2022-10-17T03:12:28.167Z,42.05
2022-10-17T03:15:30.641Z,38.00
2022-10-17T03:18:32.935Z,38.90
2022-10-17T03:21:37.946Z,36.00
2022-10-17T03:24:41.962Z,35.63
2022-10-17T03:27:44.165Z,33.88
2022-10-17T03:30:46.394Z,35.17
2022-10-17T03:33:49.101Z,37.70
2022-10-17T03:36:51.336Z,34.37
2022-10-17T03:39:54.442Z,33.93
2022-10-17T03:42:57.118Z,31.23
2022-10-17T03:46:00.007Z,30.55
2022-10-17T03:49:02.270Z,30.75
2022-10-17T03:52:04.606Z,32.07
2022-10-17T03:55:07.270Z,34.27
2022-10-17T03:58:09.406Z,36.53
2022-10-17T04:01:14.794Z,32.85
2022-10-17T04:04:17.004Z,34.35
2022-10-17T04:07:20.276Z,38.00
2022-10-17T04:10:23.844Z,36.43
2022-10-17T04:13:27.082Z,35.28
2022-10-17T04:16:29.484Z,34.58
2022-10-17T04:19:35.862Z,32.30
2022-10-17T04:22:38.477Z,37.60
2022-10-17T04:25:40.685Z,37.77
2022-10-17T04:28:43.066Z,40.03
2022-10-17T04:31:46.266Z,40.53
2022-10-17T04:34:54.080Z,32.28
2022-10-17T04:37:58.165Z,34.80
2022-10-17T04:41:03.442Z,34.03
2022-10-17T04:44:06.035Z,36.88
2022-10-17T04:47:11.824Z,31.17
2022-10-17T04:50:14.655Z,31.42
2022-10-17T04:53:17.183Z,34.83
2022-10-17T04:56:21.896Z,33.20
2022-10-17T04:59:24.054Z,32.03
2022-10-17T05:02:35.283Z,30.67
2022-10-17T05:05:39.136Z,33.05
2022-10-17T05:08:42.041Z,32.40
2022-10-17T05:11:44.234Z,31.43
2022-10-17T05:14:47.488Z,33.75
2022-10-17T05:17:55.055Z,32.88
2022-10-17T05:20:57.790Z,33.78
2022-10-17T05:24:00.211Z,35.20
2022-10-17T05:27:02.418Z,33.73
2022-10-17T05:30:05.504Z,32.13
2022-10-17T05:33:09.647Z,34.42
2022-10-17T05:36:11.980Z,33.97
2022-10-17T05:39:19.542Z,35.73
2022-10-17T05:42:24.523Z,37.53
2022-10-17T05:45:27.736Z,36.60
2022-10-17T05:48:29.974Z,35.85
2022-10-17T05:51:33.929Z,34.78
2022-10-17T05:54:38.306Z,35.57
2022-10-17T05:57:40.557Z,33.93
2022-10-17T06:00:47.640Z,47.38
2022-10-17T06:03:50.053Z,48.33
2022-10-17T06:06:52.477Z,50.22
2022-10-17T06:09:54.600Z,43.20
2022-10-17T06:12:58.904Z,35.37
2022-10-17T06:16:01.762Z,31.65
2022-10-17T06:19:04.151Z,29.08
2022-10-17T06:22:07.060Z,27.73
2022-10-17T06:25:10.352Z,25.40
2022-10-17T06:28:12.927Z,29.37
2022-10-17T06:31:17.732Z,28.27
2022-10-17T06:34:21.178Z,22.23
2022-10-17T06:37:23.396Z,24.88
2022-10-17T06:40:25.875Z,22.43
2022-10-17T06:43:28.251Z,23.23
2022-10-17T06:46:48.879Z,20.55
2022-10-17T06:49:52.836Z,22.02
2022-10-17T06:53:00.959Z,20.48
2022-10-17T06:56:21.159Z,20.17
2022-10-17T06:59:34.589Z,19.63
2022-10-17T07:02:43.917Z,18.55
2022-10-17T07:05:52.305Z,20.92
2022-10-17T07:08:55.806Z,18.90
2022-10-17T07:11:58.315Z,16.90
2022-10-17T07:15:00.700Z,19.93
2022-10-17T07:18:03.386Z,19.17
2022-10-17T07:21:06.135Z,18.98
2022-10-17T07:24:08.412Z,20.08
2022-10-17T07:27:10.707Z,19.63
2022-10-17T07:30:14.124Z,17.83
2022-10-17T07:33:27.453Z,18.60
2022-10-17T07:36:29.682Z,17.98
2022-10-17T07:39:35.638Z,17.88
2022-10-17T07:45:41.984Z,18.60
2022-10-17T07:48:44.441Z,21.77
2022-10-17T07:51:48.172Z,23.65
2022-10-17T07:54:50.624Z,17.80
2022-10-17T07:57:52.884Z,17.00
2022-10-17T08:00:55.179Z,19.47
2022-10-17T08:03:57.356Z,20.45
2022-10-17T08:07:18.292Z,18.90
2022-10-17T08:10:27.946Z,17.70
2022-10-17T08:13:32.524Z,18.80
2022-10-17T08:16:34.655Z,19.03
2022-10-17T08:19:40.536Z,19.35
2022-10-17T08:22:43.036Z,16.63
2022-10-17T08:25:45.163Z,15.68
2022-10-17T08:28:48.167Z,16.00
2022-10-17T08:31:54.083Z,18.90
2022-10-17T08:35:01.239Z,15.27
2022-10-17T08:38:09.952Z,18.42
2022-10-17T08:41:40.617Z,15.63
2022-10-17T08:45:20.567Z,16.57
2022-10-17T08:48:26.528Z,17.30
2022-10-17T08:51:33.963Z,14.93
2022-10-17T08:54:46.096Z,19.33
2022-10-17T08:57:48.715Z,20.13
2022-10-17T09:01:01.376Z,16.77
2022-10-17T09:04:34.295Z,16.10
2022-10-17T09:07:48.387Z,17.30
2022-10-17T09:10:54.080Z,16.80
2022-10-17T09:14:05.394Z,16.90
2022-10-17T09:17:28.784Z,14.77
2022-10-17T09:20:34.606Z,16.83
2022-10-17T09:23:44.144Z,15.10
2022-10-17T09:26:47.018Z,16.60
2022-10-17T09:29:51.219Z,15.23
2022-10-17T09:32:53.964Z,23.70
2022-10-17T09:35:57.568Z,13.47
2022-10-17T09:39:06.014Z,15.45
2022-10-17T09:42:13.417Z,14.32
2022-10-17T09:45:26.030Z,16.70
2022-10-17T09:48:39.803Z,17.73
2022-10-17T09:51:42.047Z,11.80
2022-10-17T09:55:12.530Z,13.07
2022-10-17T09:58:15.826Z,15.65
2022-10-17T10:01:26.107Z,14.65
2022-10-17T10:04:30.344Z,12.03
2022-10-17T10:07:39.382Z,14.43
2022-10-17T10:10:46.217Z,12.45
2022-10-17T10:13:49.381Z,12.88
2022-10-17T10:16:53.999Z,13.40
2022-10-17T10:19:56.512Z,12.03
2022-10-17T10:23:15.426Z,11.77
2022-10-17T10:26:27.553Z,11.45
2022-10-17T10:29:41.745Z,11.02
2022-10-17T10:32:46.074Z,10.40
2022-10-17T10:36:03.504Z,10.37
2022-10-17T10:39:06.315Z,12.50
2022-10-17T10:42:18.984Z,10.70
2022-10-17T10:45:46.903Z,10.23
2022-10-17T10:49:00.920Z,11.77
2022-10-17T10:52:04.616Z,10.90
2022-10-17T10:55:20.261Z,20.27
2022-10-17T10:58:47.110Z,11.65
2022-10-17T11:01:56.669Z,8.88
2022-10-17T11:05:04.438Z,9.55
2022-10-17T11:08:13.233Z,10.90
2022-10-17T11:11:24.807Z,9.47
2022-10-17T11:14:40.089Z,10.05
2022-10-17T11:17:57.442Z,8.98
2022-10-17T11:21:05.593Z,9.32
2022-10-17T11:24:16.275Z,10.17
2022-10-17T11:27:18.615Z,7.10
2022-10-17T11:30:21.445Z,8.07
2022-10-17T11:33:46.455Z,7.07
2022-10-17T11:36:51.514Z,9.88
2022-10-17T11:40:04.290Z,10.10
2022-10-17T11:43:22.733Z,7.97
2022-10-17T11:46:27.949Z,7.97
2022-10-17T11:49:40.259Z,7.60
2022-10-17T11:52:57.076Z,6.75
2022-10-17T11:56:00.619Z,8.27
2022-10-17T11:59:27.208Z,8.63
2022-10-17T12:02:35.056Z,7.57
2022-10-17T12:05:51.021Z,10.07
2022-10-17T12:09:21.086Z,8.50
2022-10-17T12:12:32.589Z,8.37
2022-10-17T12:15:34.986Z,9.83
2022-10-17T12:18:37.211Z,7.75
2022-10-17T12:22:17.471Z,10.05
2022-10-17T12:25:23.330Z,7.55
2022-10-17T12:28:46.759Z,8.17
2022-10-17T12:31:49.902Z,8.40
2022-10-17T12:34:54.091Z,8.20
2022-10-17T12:37:58.686Z,8.35
2022-10-17T12:41:02.419Z,8.70
2022-10-17T12:44:15.078Z,9.20
2022-10-17T12:47:38.272Z,8.03
2022-10-17T12:51:17.710Z,44.15
2022-10-17T12:54:24.129Z,30.42
2022-10-17T12:58:01.148Z,9.50
2022-10-17T13:01:30.584Z,9.67
2022-10-17T13:04:37.389Z,9.03
2022-10-17T13:07:41.644Z,9.02
2022-10-17T13:10:47.124Z,10.63
2022-10-17T13:13:56.426Z,7.65
2022-10-17T13:17:01.191Z,9.13
2022-10-17T13:20:03.953Z,8.40
2022-10-17T13:23:06.196Z,9.25
2022-10-17T13:26:23.040Z,6.95
2022-10-17T13:29:26.067Z,8.95
2022-10-17T13:32:36.839Z,7.73
2022-10-17T13:35:59.355Z,7.77
2022-10-17T13:39:12.252Z,8.57
2022-10-17T13:42:29.638Z,7.45
2022-10-17T13:45:34.591Z,8.50
2022-10-17T13:48:37.661Z,8.87
2022-10-17T13:51:44.156Z,6.23
2022-10-17T13:54:50.716Z,7.13
2022-10-17T13:57:53.007Z,9.75
2022-10-17T14:00:55.532Z,7.63
2022-10-17T14:04:08.268Z,11.27
2022-10-17T14:07:41.548Z,8.53
2022-10-17T14:10:53.699Z,8.57
2022-10-17T14:13:56.589Z,9.38
2022-10-17T14:16:58.839Z,8.27
2022-10-17T14:20:40.419Z,8.27
2022-10-17T14:23:39.008Z,6.97
2022-10-17T14:26:55.609Z,9.75
2022-10-17T14:30:04.467Z,8.38
2022-10-17T14:33:13.051Z,7.68
2022-10-17T14:36:15.644Z,8.03
2022-10-17T14:39:20.989Z,6.30
2022-10-17T14:42:23.240Z,6.78
2022-10-17T14:45:34.363Z,18.13
2022-10-17T14:48:36.579Z,17.55
2022-10-17T14:51:50.393Z,7.30
2022-10-17T14:55:01.224Z,9.97
2022-10-17T14:58:20.112Z,9.93
2022-10-17T15:01:22.304Z,13.05
2022-10-17T15:04:24.465Z,11.65
2022-10-17T15:07:26.608Z,6.77
2022-10-17T15:10:33.941Z,7.90
2022-10-17T15:13:41.027Z,8.60
2022-10-17T15:16:46.417Z,7.53
2022-10-17T15:19:48.907Z,6.88
2022-10-17T15:22:51.049Z,7.57
2022-10-17T15:25:56.244Z,7.63
2022-10-17T15:28:59.561Z,6.82
2022-10-17T15:32:02.130Z,8.82
2022-10-17T15:35:04.473Z,11.35
2022-10-17T15:38:07.105Z,9.23
2022-10-17T15:41:11.195Z,8.30
2022-10-17T15:44:13.360Z,9.82
2022-10-17T15:47:24.462Z,16.58
2022-10-17T15:50:29.041Z,21.33
2022-10-17T15:53:31.222Z,13.57
2022-10-17T15:56:36.560Z,11.87
2022-10-17T15:59:38.678Z,10.85
2022-10-17T16:02:40.903Z,12.82
2022-10-17T16:05:43.023Z,15.50
2022-10-17T16:08:46.347Z,12.50
2022-10-17T16:11:48.477Z,13.20
2022-10-17T16:14:50.717Z,16.00
2022-10-17T16:17:54.191Z,15.50
2022-10-17T16:20:56.327Z,13.35
2022-10-17T16:23:59.458Z,12.07
2022-10-17T16:27:01.880Z,13.20
2022-10-17T16:30:05.850Z,13.40
2022-10-17T16:33:08.198Z,14.55
2022-10-17T16:36:10.522Z,13.98
2022-10-17T16:39:12.669Z,15.20
2022-10-17T16:42:14.788Z,15.13
2022-10-17T16:45:20.206Z,15.98
2022-10-17T16:48:24.941Z,16.75
2022-10-17T16:51:33.701Z,17.65
2022-10-17T16:54:35.895Z,18.20
2022-10-17T16:57:38.214Z,21.93
2022-10-17T17:00:40.432Z,19.10
2022-10-17T17:03:44.460Z,18.45
2022-10-17T17:06:46.691Z,18.38
2022-10-17T17:09:49.140Z,16.37
2022-10-17T17:12:51.426Z,17.20
2022-10-17T17:16:03.410Z,16.50
2022-10-17T17:19:11.877Z,19.55
2022-10-17T17:22:14.080Z,20.85
2022-10-17T17:25:16.672Z,25.37
2022-10-17T17:28:19.020Z,22.93
2022-10-17T17:31:24.432Z,25.42
2022-10-17T17:34:27.080Z,26.92
2022-10-17T17:37:30.054Z,24.67
2022-10-17T17:40:34.598Z,32.53
2022-10-17T17:43:37.255Z,26.57
2022-10-17T17:46:40.016Z,27.88
2022-10-17T17:49:42.480Z,25.63
2022-10-17T17:52:46.539Z,27.95
2022-10-17T17:55:48.781Z,24.03
2022-10-17T17:58:59.420Z,29.43
2022-10-17T18:02:13.284Z,25.27
2022-10-17T18:05:16.918Z,27.40
2022-10-17T18:08:19.707Z,29.98
2022-10-17T18:11:22.639Z,29.63
2022-10-17T18:14:25.812Z,29.50
2022-10-17T18:17:28.464Z,28.95
2022-10-17T18:20:32.203Z,27.27
2022-10-17T18:23:39.943Z,30.08
2022-10-17T18:26:42.833Z,29.40
2022-10-17T18:29:46.652Z,27.63
2022-10-17T18:32:48.832Z,29.15
2022-10-17T18:35:51.419Z,26.83
2022-10-17T18:38:55.092Z,30.23
2022-10-17T18:41:57.794Z,31.43
2022-10-17T18:45:00.436Z,32.03
2022-10-17T18:48:06.456Z,34.10
2022-10-17T18:51:09.176Z,30.85
2022-10-17T18:54:14.987Z,29.48
2022-10-17T18:57:17.548Z,32.53
2022-10-17T19:00:20.724Z,33.07
2022-10-17T19:03:23.398Z,30.15
2022-10-17T19:06:31.977Z,30.02
2022-10-17T19:09:34.736Z,67.75
2022-10-17T19:12:37.567Z,99.90
2022-10-17T19:15:40.219Z,238.57
2022-10-17T19:18:43.895Z,193.82
2022-10-17T19:21:48.011Z,93.50
2022-10-17T19:24:52.322Z,59.05
2022-10-17T19:27:55.318Z,73.50
2022-10-17T19:30:59.535Z,49.17
2022-10-17T19:34:02.817Z,42.03
2022-10-17T19:37:05.750Z,52.42
2022-10-17T19:40:08.820Z,63.35
2022-10-17T19:43:11.394Z,65.37
2022-10-17T19:46:16.098Z,55.67
2022-10-17T19:49:18.466Z,46.42
2022-10-17T19:52:20.799Z,43.40
2022-10-17T19:55:23.361Z,54.20
2022-10-17T19:58:27.043Z,58.80
2022-10-17T20:01:31.654Z,71.27
2022-10-17T20:04:33.985Z,68.25
2022-10-17T20:07:36.940Z,55.22
2022-10-17T20:10:39.626Z,55.55
2022-10-17T20:13:43.130Z,56.97
2022-10-17T20:16:50.471Z,41.87
2022-10-17T20:19:52.654Z,40.55
2022-10-17T20:22:54.892Z,42.40
2022-10-17T20:26:08.034Z,35.05
2022-10-17T20:29:21.457Z,41.83
2022-10-17T20:32:23.606Z,44.03
2022-10-17T20:35:25.839Z,51.00
2022-10-17T20:38:28.014Z,62.13
2022-10-17T20:41:30.671Z,47.78
2022-10-17T20:44:32.860Z,49.03
2022-10-17T20:47:46.000Z,51.63
2022-10-17T20:50:51.301Z,48.75
2022-10-17T20:53:53.621Z,51.90
2022-10-17T20:56:58.644Z,69.85
2022-10-17T21:00:04.711Z,146.00
2022-10-17T21:03:07.674Z,104.27
2022-10-17T21:06:10.373Z,63.72
2022-10-17T21:09:12.514Z,66.95
2022-10-17T21:12:21.783Z,70.80
2022-10-17T21:15:33.349Z,64.27
2022-10-17T21:18:35.558Z,61.63
2022-10-17T21:21:42.239Z,57.53
2022-10-17T21:24:44.370Z,75.63
2022-10-17T21:27:46.603Z,96.97
2022-10-17T21:30:48.764Z,69.53
2022-10-17T21:33:56.718Z,60.73
2022-10-17T21:36:58.874Z,57.63
2022-10-17T21:40:01.051Z,70.88
2022-10-17T21:43:03.218Z,159.95
2022-10-17T21:46:18.007Z,76.17
2022-10-17T21:49:22.100Z,61.27
2022-10-17T21:52:24.371Z,53.10
2022-10-17T21:55:26.535Z,52.67
2022-10-17T21:58:29.102Z,54.33
2022-10-17T22:01:33.805Z,72.00
2022-10-17T22:04:36.027Z,64.27
2022-10-17T22:07:38.128Z,65.03
2022-10-17T22:10:40.919Z,63.17
2022-10-17T22:13:43.432Z,49.45
2022-10-17T22:16:46.649Z,48.60
2022-10-17T22:19:48.920Z,53.43
2022-10-17T22:22:51.081Z,48.10
2022-10-17T22:25:54.745Z,51.00
2022-10-17T22:28:56.999Z,46.83
2022-10-17T22:31:59.171Z,49.50
2022-10-17T22:35:01.301Z,47.67
2022-10-17T22:38:03.522Z,51.75
2022-10-17T22:41:05.901Z,52.80
2022-10-17T22:44:08.160Z,59.80
2022-10-17T22:47:10.347Z,59.57
2022-10-17T22:50:12.507Z,52.27
2022-10-17T22:53:22.742Z,52.83
2022-10-17T22:56:24.923Z,50.30
2022-10-17T22:59:27.053Z,51.40
2022-10-17T23:02:29.635Z,49.00
2022-10-17T23:05:32.024Z,48.90
2022-10-17T23:08:34.248Z,50.60
2022-10-17T23:11:36.437Z,50.80
2022-10-17T23:14:38.743Z,50.03
2022-10-17T23:17:40.885Z,47.80
2022-10-17T23:20:42.998Z,44.90
2022-10-17T23:23:45.164Z,48.53
2022-10-17T23:26:47.385Z,48.85
2022-10-17T23:29:49.563Z,47.92
2022-10-17T23:32:51.710Z,48.90
2022-10-17T23:35:53.863Z,50.63
2022-10-17T23:38:58.461Z,55.15
2022-10-17T23:42:00.981Z,54.25
2022-10-17T23:45:05.325Z,49.92
2022-10-17T23:48:09.142Z,52.70
2022-10-17T23:51:12.646Z,49.53
2022-10-17T23:54:16.151Z,40.20
2022-10-17T23:57:19.958Z,40.50
